Terminal Aerodrome Forecast
Issued by NWS Sioux Falls, SD

Home | Current Version | Previous Version | Text Only | Print | Product List | Glossary On
Versions: 1 2 3 4 5 6 7 8 9 10 11 12 13 14 15 16
000
FTUS43 KFSD 222320
TAFHON
TAF
KHON 222320Z 2300/2324 17017G27KT P6SM SCT080 SCT200
     FM230500 17014KT P6SM -TSRA OVC035CB
      TEMPO 2306/2307 27025G40KT
     FM230900 20010KT P6SM -SHRA OVC060
     FM231000 20008KT P6SM OVC060
     FM231500 25007KT P6SM BKN250
     FM231700 29007KT P6SM SCT250=

USA.gov is the U.S. government's official web portal to all federal, state and local government web resources and services.